Zeigler, Illinois
Current Conditions -  °F | °C
As of 1:10 AM on Thursday 18 Dec 2014 (Local Time) from KMWA Reporting Station
Overcast Overcast  
Wind Chill: 32°   Ceiling: 7000
Heat Index: 32°   Visibility: 10mi
Dew Point: 28°   Wind: 3mph
Humidity: 87%   Direction: 90°E
Pressure: 30.3"   Gusts: NA
Location:  37.9°N, 89.05°W
Report Text: KMWA 180710Z AUTO 09003KT 10SM BKN070 OVC100 00/M02 A3030 RMK AO2
Loading
Personal Weather Stations






























Interactive Weather Map New forecast layout! Learn more

10-Day Weather Forecast

Advertisements
Track Severe Weather on mobile